sensor_id;sensor_type;location;lat;lon;timestamp;pressure;altitude;pressure_sealevel;temperature;humidity
76973;BME280;65907;53.640;10.050;2023-05-10T00:00:27;100122.63;;;22.57;39.95
76973;BME280;65907;53.640;10.050;2023-05-10T00:02:52;100107.09;;;22.55;39.89
76973;BME280;65907;53.640;10.050;2023-05-10T00:05:18;100110.06;;;22.60;39.61
76973;BME280;65907;53.640;10.050;2023-05-10T00:07:43;100105.16;;;22.66;39.69
76973;BME280;65907;53.640;10.050;2023-05-10T00:10:11;100108.28;;;22.61;39.62
76973;BME280;65907;53.640;10.050;2023-05-10T00:12:36;100109.75;;;22.63;39.52
76973;BME280;65907;53.640;10.050;2023-05-10T00:15:02;100101.06;;;22.63;39.42
76973;BME280;65907;53.640;10.050;2023-05-10T00:17:27;100108.44;;;22.68;39.37
76973;BME280;65907;53.640;10.050;2023-05-10T00:19:53;100099.88;;;22.57;39.21
76973;BME280;65907;53.640;10.050;2023-05-10T00:22:18;100099.25;;;22.63;39.50
76973;BME280;65907;53.640;10.050;2023-05-10T00:24:43;100100.41;;;22.61;39.45
76973;BME280;65907;53.640;10.050;2023-05-10T00:27:10;100099.72;;;22.59;39.62
76973;BME280;65907;53.640;10.050;2023-05-10T00:29:36;100094.84;;;22.64;39.37
76973;BME280;65907;53.640;10.050;2023-05-10T00:32:03;100092.25;;;22.64;39.26
76973;BME280;65907;53.640;10.050;2023-05-10T00:34:29;100091.84;;;22.59;39.15
76973;BME280;65907;53.640;10.050;2023-05-10T00:36:54;100085.50;;;22.61;39.40
76973;BME280;65907;53.640;10.050;2023-05-10T00:39:19;100094.19;;;22.62;38.94
76973;BME280;65907;53.640;10.050;2023-05-10T00:41:45;100087.44;;;22.59;39.23
76973;BME280;65907;53.640;10.050;2023-05-10T00:44:12;100081.78;;;22.72;38.75
76973;BME280;65907;53.640;10.050;2023-05-10T00:46:37;100085.28;;;22.55;39.03
76973;BME280;65907;53.640;10.050;2023-05-10T00:49:05;100083.19;;;22.58;38.95
76973;BME280;65907;53.640;10.050;2023-05-10T00:51:30;100087.81;;;22.65;38.94
76973;BME280;65907;53.640;10.050;2023-05-10T00:53:56;100094.53;;;22.67;38.75
76973;BME280;65907;53.640;10.050;2023-05-10T00:56:21;100087.59;;;22.58;39.22
76973;BME280;65907;53.640;10.050;2023-05-10T00:58:48;100077.59;;;22.53;38.74
76973;BME280;65907;53.640;10.050;2023-05-10T01:01:13;100079.94;;;22.65;38.71
76973;BME280;65907;53.640;10.050;2023-05-10T01:03:39;100077.19;;;22.66;38.84
76973;BME280;65907;53.640;10.050;2023-05-10T01:06:04;100072.06;;;22.65;38.68
76973;BME280;65907;53.640;10.050;2023-05-10T01:08:30;100068.44;;;22.57;38.49
76973;BME280;65907;53.640;10.050;2023-05-10T01:10:55;100071.72;;;22.59;38.85
76973;BME280;65907;53.640;10.050;2023-05-10T01:15:52;100068.47;;;22.66;38.47
76973;BME280;65907;53.640;10.050;2023-05-10T01:18:17;100068.34;;;22.67;38.45
76973;BME280;65907;53.640;10.050;2023-05-10T01:20:45;100066.34;;;22.61;38.77
76973;BME280;65907;53.640;10.050;2023-05-10T01:23:59;100066.28;;;22.53;38.63
76973;BME280;65907;53.640;10.050;2023-05-10T01:26:18;100065.38;;;22.62;38.55
76973;BME280;65907;53.640;10.050;2023-05-10T01:29:09;100064.31;;;22.55;38.69
76973;BME280;65907;53.640;10.050;2023-05-10T01:34:19;100066.94;;;22.55;38.47
76973;BME280;65907;53.640;10.050;2023-05-10T01:36:56;100068.00;;;22.62;38.35
76973;BME280;65907;53.640;10.050;2023-05-10T01:39:32;100069.47;;;22.65;38.54
76973;BME280;65907;53.640;10.050;2023-05-10T01:47:02;100056.47;;;22.55;38.47
76973;BME280;65907;53.640;10.050;2023-05-10T01:49:30;100061.69;;;22.55;38.10
76973;BME280;65907;53.640;10.050;2023-05-10T01:51:59;100061.88;;;22.53;38.45
76973;BME280;65907;53.640;10.050;2023-05-10T01:54:25;100064.50;;;22.53;38.45
76973;BME280;65907;53.640;10.050;2023-05-10T01:56:58;100064.84;;;22.58;38.08
76973;BME280;65907;53.640;10.050;2023-05-10T01:59:26;100065.31;;;22.54;38.24
76973;BME280;65907;53.640;10.050;2023-05-10T02:01:53;100067.28;;;22.60;38.33
76973;BME280;65907;53.640;10.050;2023-05-10T02:04:19;100066.28;;;22.53;38.54
76973;BME280;65907;53.640;10.050;2023-05-10T02:06:46;100062.00;;;22.52;38.45
76973;BME280;65907;53.640;10.050;2023-05-10T02:09:12;100065.47;;;22.52;38.07
76973;BME280;65907;53.640;10.050;2023-05-10T02:11:39;100069.56;;;22.55;38.20
76973;BME280;65907;53.640;10.050;2023-05-10T02:14:08;100067.13;;;22.53;38.41
76973;BME280;65907;53.640;10.050;2023-05-10T02:16:34;100063.31;;;22.47;38.20
76973;BME280;65907;53.640;10.050;2023-05-10T02:19:00;100063.00;;;22.51;38.25
76973;BME280;65907;53.640;10.050;2023-05-10T02:21:26;100060.22;;;22.52;38.33
76973;BME280;65907;53.640;10.050;2023-05-10T02:23:52;100061.22;;;22.51;38.34
76973;BME280;65907;53.640;10.050;2023-05-10T02:26:19;100060.00;;;22.45;38.73
76973;BME280;65907;53.640;10.050;2023-05-10T02:28:46;100056.44;;;22.46;38.20
76973;BME280;65907;53.640;10.050;2023-05-10T02:31:11;100062.19;;;22.50;38.13
76973;BME280;65907;53.640;10.050;2023-05-10T02:33:39;100059.16;;;22.63;38.14
76973;BME280;65907;53.640;10.050;2023-05-10T02:36:05;100062.22;;;22.58;37.95
76973;BME280;65907;53.640;10.050;2023-05-10T02:38:32;100062.47;;;22.47;38.33
76973;BME280;65907;53.640;10.050;2023-05-10T02:40:59;100063.59;;;22.44;37.98
76973;BME280;65907;53.640;10.050;2023-05-10T02:43:25;100059.72;;;22.48;38.33
76973;BME280;65907;53.640;10.050;2023-05-10T02:45:52;100054.69;;;22.55;38.29
76973;BME280;65907;53.640;10.050;2023-05-10T02:48:18;100057.50;;;22.62;37.94
76973;BME280;65907;53.640;10.050;2023-05-10T02:50:44;100056.78;;;22.52;38.31
76973;BME280;65907;53.640;10.050;2023-05-10T02:53:10;100058.06;;;22.47;38.23
76973;BME280;65907;53.640;10.050;2023-05-10T02:55:38;100054.16;;;22.52;38.37
76973;BME280;65907;53.640;10.050;2023-05-10T02:58:05;100051.19;;;22.46;38.30
76973;BME280;65907;53.640;10.050;2023-05-10T03:00:30;100052.38;;;22.52;38.17
76973;BME280;65907;53.640;10.050;2023-05-10T03:02:56;100054.59;;;22.47;38.29
76973;BME280;65907;53.640;10.050;2023-05-10T03:05:21;100044.00;;;22.48;38.08
76973;BME280;65907;53.640;10.050;2023-05-10T03:07:46;100049.94;;;22.59;38.08
76973;BME280;65907;53.640;10.050;2023-05-10T03:10:12;100044.41;;;22.62;37.73
76973;BME280;65907;53.640;10.050;2023-05-10T03:12:57;100047.16;;;22.60;38.01
76973;BME280;65907;53.640;10.050;2023-05-10T03:17:55;100055.16;;;22.59;37.81
76973;BME280;65907;53.640;10.050;2023-05-10T03:20:25;100045.63;;;22.49;38.20
76973;BME280;65907;53.640;10.050;2023-05-10T03:22:53;100056.94;;;22.50;38.06
76973;BME280;65907;53.640;10.050;2023-05-10T03:25:20;100052.06;;;22.55;38.15
76973;BME280;65907;53.640;10.050;2023-05-10T03:27:46;100049.13;;;22.58;37.92
76973;BME280;65907;53.640;10.050;2023-05-10T03:30:12;100059.44;;;22.60;37.63
76973;BME280;65907;53.640;10.050;2023-05-10T03:32:38;100046.53;;;22.67;37.88
76973;BME280;65907;53.640;10.050;2023-05-10T03:35:10;100042.25;;;22.57;38.04
76973;BME280;65907;53.640;10.050;2023-05-10T03:37:36;100047.78;;;22.54;38.11
76973;BME280;65907;53.640;10.050;2023-05-10T03:40:02;100049.16;;;22.67;37.82
76973;BME280;65907;53.640;10.050;2023-05-10T03:42:27;100043.03;;;22.58;37.81
76973;BME280;65907;53.640;10.050;2023-05-10T03:44:53;100047.69;;;22.64;37.78
76973;BME280;65907;53.640;10.050;2023-05-10T03:47:18;100048.50;;;22.65;37.83
76973;BME280;65907;53.640;10.050;2023-05-10T03:49:43;100045.19;;;22.54;37.69
76973;BME280;65907;53.640;10.050;2023-05-10T03:52:11;100045.97;;;22.55;38.16
76973;BME280;65907;53.640;10.050;2023-05-10T03:54:37;100054.16;;;22.52;38.04
76973;BME280;65907;53.640;10.050;2023-05-10T03:57:02;100056.16;;;22.58;37.90
76973;BME280;65907;53.640;10.050;2023-05-10T03:59:27;100046.53;;;22.67;37.72
76973;BME280;65907;53.640;10.050;2023-05-10T04:01:53;100050.13;;;22.66;37.98
76973;BME280;65907;53.640;10.050;2023-05-10T04:04:18;100041.47;;;22.65;37.83
76973;BME280;65907;53.640;10.050;2023-05-10T04:06:45;100048.84;;;22.70;37.46
76973;BME280;65907;53.640;10.050;2023-05-10T04:09:10;100043.91;;;22.67;37.50
76973;BME280;65907;53.640;10.050;2023-05-10T04:11:36;100048.03;;;22.69;37.79
76973;BME280;65907;53.640;10.050;2023-05-10T04:14:01;100047.09;;;22.26;38.53
76973;BME280;65907;53.640;10.050;2023-05-10T04:16:26;100051.75;;;22.58;37.99
76973;BME280;65907;53.640;10.050;2023-05-10T04:18:51;100046.16;;;22.53;38.25
76973;BME280;65907;53.640;10.050;2023-05-10T04:21:16;100044.09;;;22.65;37.99
76973;BME280;65907;53.640;10.050;2023-05-10T04:23:42;100043.44;;;22.63;37.96
76973;BME280;65907;53.640;10.050;2023-05-10T04:26:07;100038.47;;;22.60;38.05
76973;BME280;65907;53.640;10.050;2023-05-10T04:28:35;100046.72;;;22.65;37.53
76973;BME280;65907;53.640;10.050;2023-05-10T04:31:07;100047.88;;;22.44;38.35
76973;BME280;65907;53.640;10.050;2023-05-10T04:33:32;100046.31;;;22.33;38.37
76973;BME280;65907;53.640;10.050;2023-05-10T04:35:58;100050.88;;;22.49;38.31
76973;BME280;65907;53.640;10.050;2023-05-10T04:38:26;100055.03;;;22.60;38.12
76973;BME280;65907;53.640;10.050;2023-05-10T04:40:53;100056.53;;;22.63;38.08
76973;BME280;65907;53.640;10.050;2023-05-10T04:43:19;100063.75;;;22.69;37.73
76973;BME280;65907;53.640;10.050;2023-05-10T04:45:44;100067.69;;;22.65;37.99
76973;BME280;65907;53.640;10.050;2023-05-10T04:48:09;100064.75;;;22.68;38.12
76973;BME280;65907;53.640;10.050;2023-05-10T04:50:34;100063.25;;;22.66;38.16
76973;BME280;65907;53.640;10.050;2023-05-10T04:53:00;100060.63;;;22.66;38.11
76973;BME280;65907;53.640;10.050;2023-05-10T04:55:25;100067.50;;;22.67;38.31
76973;BME280;65907;53.640;10.050;2023-05-10T04:57:53;100081.09;;;22.62;38.43
76973;BME280;65907;53.640;10.050;2023-05-10T05:00:20;100085.38;;;22.71;38.11
76973;BME280;65907;53.640;10.050;2023-05-10T05:02:45;100078.81;;;22.67;38.05
76973;BME280;65907;53.640;10.050;2023-05-10T05:05:11;100079.16;;;22.72;38.11
76973;BME280;65907;53.640;10.050;2023-05-10T05:07:36;100075.88;;;22.70;38.14
76973;BME280;65907;53.640;10.050;2023-05-10T05:10:02;100082.31;;;22.31;39.44
76973;BME280;65907;53.640;10.050;2023-05-10T05:12:28;100083.69;;;22.17;40.09
76973;BME280;65907;53.640;10.050;2023-05-10T05:14:53;100086.22;;;22.27;39.58
76973;BME280;65907;53.640;10.050;2023-05-10T05:17:18;100090.53;;;22.55;39.01
76973;BME280;65907;53.640;10.050;2023-05-10T05:19:43;100097.72;;;22.53;39.10
76973;BME280;65907;53.640;10.050;2023-05-10T05:22:11;100107.09;;;22.55;38.74
76973;BME280;65907;53.640;10.050;2023-05-10T05:24:36;100126.41;;;22.54;38.88
76973;BME280;65907;53.640;10.050;2023-05-10T05:27:04;100131.47;;;22.56;38.79
76973;BME280;65907;53.640;10.050;2023-05-10T05:29:30;100121.22;;;22.44;39.04
76973;BME280;65907;53.640;10.050;2023-05-10T05:31:56;100135.25;;;22.53;39.02
76973;BME280;65907;53.640;10.050;2023-05-10T05:34:21;100134.47;;;22.61;38.39
76973;BME280;65907;53.640;10.050;2023-05-10T05:36:47;100129.69;;;22.56;38.86
76973;BME280;65907;53.640;10.050;2023-05-10T05:39:12;100131.38;;;22.66;38.53
76973;BME280;65907;53.640;10.050;2023-05-10T05:41:37;100138.88;;;22.60;38.58
76973;BME280;65907;53.640;10.050;2023-05-10T05:44:03;100135.72;;;22.57;38.69
76973;BME280;65907;53.640;10.050;2023-05-10T05:46:28;100138.56;;;22.63;38.56
76973;BME280;65907;53.640;10.050;2023-05-10T05:48:53;100137.84;;;22.53;38.84
76973;BME280;65907;53.640;10.050;2023-05-10T05:51:18;100140.09;;;22.48;39.08
76973;BME280;65907;53.640;10.050;2023-05-10T05:53:43;100138.22;;;22.58;38.91
76973;BME280;65907;53.640;10.050;2023-05-10T05:56:09;100135.69;;;22.48;39.12
76973;BME280;65907;53.640;10.050;2023-05-10T05:58:34;100143.91;;;22.54;38.80
76973;BME280;65907;53.640;10.050;2023-05-10T06:01:00;100138.31;;;22.48;39.03
76973;BME280;65907;53.640;10.050;2023-05-10T06:03:25;100140.94;;;22.48;39.01
76973;BME280;65907;53.640;10.050;2023-05-10T06:05:50;100138.31;;;22.48;39.01
76973;BME280;65907;53.640;10.050;2023-05-10T06:08:15;100143.75;;;22.55;38.63
76973;BME280;65907;53.640;10.050;2023-05-10T06:10:40;100135.41;;;22.60;38.91
76973;BME280;65907;53.640;10.050;2023-05-10T06:13:05;100147.50;;;22.53;38.74
76973;BME280;65907;53.640;10.050;2023-05-10T06:15:31;100148.47;;;22.52;39.08
76973;BME280;65907;53.640;10.050;2023-05-10T06:17:57;100147.56;;;22.61;38.79
76973;BME280;65907;53.640;10.050;2023-05-10T06:20:22;100147.34;;;22.54;38.95
76973;BME280;65907;53.640;10.050;2023-05-10T06:22:47;100148.34;;;22.53;38.86
76973;BME280;65907;53.640;10.050;2023-05-10T06:25:13;100151.97;;;22.60;38.98
76973;BME280;65907;53.640;10.050;2023-05-10T06:27:39;100145.84;;;22.52;38.69
76973;BME280;65907;53.640;10.050;2023-05-10T06:30:04;100149.31;;;22.52;38.74
76973;BME280;65907;53.640;10.050;2023-05-10T06:32:30;100148.25;;;22.63;38.70
76973;BME280;65907;53.640;10.050;2023-05-10T06:34:55;100161.63;;;22.60;38.73
76973;BME280;65907;53.640;10.050;2023-05-10T06:37:20;100153.75;;;22.60;38.66
76973;BME280;65907;53.640;10.050;2023-05-10T06:39:46;100159.97;;;22.59;39.02
76973;BME280;65907;53.640;10.050;2023-05-10T06:42:11;100173.09;;;22.59;38.67
76973;BME280;65907;53.640;10.050;2023-05-10T06:44:36;100171.75;;;22.55;39.06
76973;BME280;65907;53.640;10.050;2023-05-10T06:47:01;100171.06;;;22.53;38.81
76973;BME280;65907;53.640;10.050;2023-05-10T06:49:26;100176.84;;;22.56;38.81
76973;BME280;65907;53.640;10.050;2023-05-10T06:51:52;100177.81;;;22.55;39.12
76973;BME280;65907;53.640;10.050;2023-05-10T06:54:17;100181.25;;;22.56;39.15
76973;BME280;65907;53.640;10.050;2023-05-10T06:56:42;100186.19;;;22.59;38.99
76973;BME280;65907;53.640;10.050;2023-05-10T06:59:07;100183.88;;;22.56;39.17
76973;BME280;65907;53.640;10.050;2023-05-10T07:01:33;100182.59;;;22.60;38.90
76973;BME280;65907;53.640;10.050;2023-05-10T07:03:58;100184.53;;;22.58;39.11
76973;BME280;65907;53.640;10.050;2023-05-10T07:06:23;100193.59;;;22.63;38.70
76973;BME280;65907;53.640;10.050;2023-05-10T07:08:48;100195.19;;;22.56;39.13
76973;BME280;65907;53.640;10.050;2023-05-10T07:11:14;100196.53;;;22.42;39.46
76973;BME280;65907;53.640;10.050;2023-05-10T07:13:39;100194.28;;;22.47;39.40
76973;BME280;65907;53.640;10.050;2023-05-10T07:16:06;100202.56;;;22.43;39.27
76973;BME280;65907;53.640;10.050;2023-05-10T07:18:32;100205.75;;;22.46;39.26
76973;BME280;65907;53.640;10.050;2023-05-10T07:20:58;100209.56;;;22.52;39.30
76973;BME280;65907;53.640;10.050;2023-05-10T07:23:23;100212.31;;;22.32;39.72
76973;BME280;65907;53.640;10.050;2023-05-10T07:25:48;100213.34;;;22.40;39.60
76973;BME280;65907;53.640;10.050;2023-05-10T07:28:14;100212.06;;;22.44;39.28
76973;BME280;65907;53.640;10.050;2023-05-10T07:30:40;100219.94;;;22.44;39.38
76973;BME280;65907;53.640;10.050;2023-05-10T07:33:05;100223.47;;;22.53;39.37
76973;BME280;65907;53.640;10.050;2023-05-10T07:35:30;100230.84;;;22.49;39.29
76973;BME280;65907;53.640;10.050;2023-05-10T07:37:55;100230.56;;;22.42;39.38
76973;BME280;65907;53.640;10.050;2023-05-10T07:40:23;100230.13;;;22.29;39.57
76973;BME280;65907;53.640;10.050;2023-05-10T07:42:48;100234.16;;;22.41;39.58
76973;BME280;65907;53.640;10.050;2023-05-10T07:45:16;100233.41;;;22.31;39.62
76973;BME280;65907;53.640;10.050;2023-05-10T07:47:41;100239.72;;;22.38;39.69
76973;BME280;65907;53.640;10.050;2023-05-10T07:50:06;100241.25;;;22.31;39.77
76973;BME280;65907;53.640;10.050;2023-05-10T07:52:32;100244.25;;;22.36;39.73
76973;BME280;65907;53.640;10.050;2023-05-10T07:54:57;100242.47;;;22.37;39.86
76973;BME280;65907;53.640;10.050;2023-05-10T07:57:22;100254.06;;;22.34;39.95
76973;BME280;65907;53.640;10.050;2023-05-10T07:59:47;100252.41;;;22.33;39.81
76973;BME280;65907;53.640;10.050;2023-05-10T08:02:13;100250.88;;;22.40;39.58
76973;BME280;65907;53.640;10.050;2023-05-10T08:04:40;100256.66;;;22.34;39.73
76973;BME280;65907;53.640;10.050;2023-05-10T08:07:05;100266.47;;;22.32;39.58
76973;BME280;65907;53.640;10.050;2023-05-10T08:09:31;100260.50;;;22.40;39.43
76973;BME280;65907;53.640;10.050;2023-05-10T08:11:56;100270.75;;;22.33;39.93
76973;BME280;65907;53.640;10.050;2023-05-10T08:14:21;100273.59;;;22.40;39.66
76973;BME280;65907;53.640;10.050;2023-05-10T08:16:46;100277.56;;;22.44;39.44
76973;BME280;65907;53.640;10.050;2023-05-10T08:19:12;100292.22;;;22.46;39.50
76973;BME280;65907;53.640;10.050;2023-05-10T08:21:37;100287.31;;;22.33;40.14
76973;BME280;65907;53.640;10.050;2023-05-10T08:24:03;100285.47;;;22.34;40.05
76973;BME280;65907;53.640;10.050;2023-05-10T08:26:28;100290.44;;;22.37;39.94
76973;BME280;65907;53.640;10.050;2023-05-10T08:28:53;100288.69;;;22.28;40.08
76973;BME280;65907;53.640;10.050;2023-05-10T08:31:18;100289.69;;;22.45;39.46
76973;BME280;65907;53.640;10.050;2023-05-10T08:33:46;100294.53;;;22.49;39.62
76973;BME280;65907;53.640;10.050;2023-05-10T08:36:11;100294.38;;;22.51;39.76
76973;BME280;65907;53.640;10.050;2023-05-10T08:38:39;100295.44;;;22.58;39.34
76973;BME280;65907;53.640;10.050;2023-05-10T08:41:04;100296.53;;;22.56;39.33
76973;BME280;65907;53.640;10.050;2023-05-10T08:43:30;100293.88;;;22.38;40.09
76973;BME280;65907;53.640;10.050;2023-05-10T08:45:56;100301.47;;;22.59;39.39
76973;BME280;65907;53.640;10.050;2023-05-10T08:48:24;100298.78;;;22.51;39.82
76973;BME280;65907;53.640;10.050;2023-05-10T08:50:52;100299.47;;;22.53;39.72
76973;BME280;65907;53.640;10.050;2023-05-10T08:53:17;100308.66;;;22.57;39.62
76973;BME280;65907;53.640;10.050;2023-05-10T08:55:43;100313.84;;;22.67;39.47
76973;BME280;65907;53.640;10.050;2023-05-10T08:58:09;100312.66;;;22.61;39.34
76973;BME280;65907;53.640;10.050;2023-05-10T09:00:35;100315.13;;;22.34;40.10
76973;BME280;65907;53.640;10.050;2023-05-10T09:03:02;100323.03;;;22.53;39.50
76973;BME280;65907;53.640;10.050;2023-05-10T09:05:27;100328.81;;;22.56;39.75
76973;BME280;65907;53.640;10.050;2023-05-10T09:07:55;100329.19;;;22.61;39.55
76973;BME280;65907;53.640;10.050;2023-05-10T09:10:21;100334.44;;;22.61;39.73
76973;BME280;65907;53.640;10.050;2023-05-10T09:12:46;100337.91;;;22.62;39.62
76973;BME280;65907;53.640;10.050;2023-05-10T09:15:14;100346.44;;;22.64;39.52
76973;BME280;65907;53.640;10.050;2023-05-10T09:17:40;100342.44;;;22.60;39.64
76973;BME280;65907;53.640;10.050;2023-05-10T09:20:06;100351.06;;;22.70;39.51
76973;BME280;65907;53.640;10.050;2023-05-10T09:22:32;100351.06;;;22.70;39.64
76973;BME280;65907;53.640;10.050;2023-05-10T09:25:06;100352.47;;;22.65;39.68
76973;BME280;65907;53.640;10.050;2023-05-10T09:27:31;100358.75;;;22.72;39.57
76973;BME280;65907;53.640;10.050;2023-05-10T09:29:59;100365.44;;;22.66;39.51
76973;BME280;65907;53.640;10.050;2023-05-10T09:35:09;100363.63;;;22.67;39.88
76973;BME280;65907;53.640;10.050;2023-05-10T09:37:34;100366.41;;;22.65;39.80
76973;BME280;65907;53.640;10.050;2023-05-10T09:39:59;100370.00;;;22.64;39.89
76973;BME280;65907;53.640;10.050;2023-05-10T09:42:25;100372.63;;;22.64;39.64
76973;BME280;65907;53.640;10.050;2023-05-10T09:44:50;100369.03;;;22.65;39.76
76973;BME280;65907;53.640;10.050;2023-05-10T09:47:18;100373.16;;;22.68;39.82
76973;BME280;65907;53.640;10.050;2023-05-10T09:49:44;100375.63;;;22.69;39.40
76973;BME280;65907;53.640;10.050;2023-05-10T09:52:09;100372.47;;;22.66;39.89
76973;BME280;65907;53.640;10.050;2023-05-10T09:54:34;100382.53;;;22.70;39.39
76973;BME280;65907;53.640;10.050;2023-05-10T09:57:00;100388.34;;;22.64;39.71
76973;BME280;65907;53.640;10.050;2023-05-10T09:59:26;100387.53;;;22.63;39.72
76973;BME280;65907;53.640;10.050;2023-05-10T10:01:52;100392.47;;;22.67;39.95
76973;BME280;65907;53.640;10.050;2023-05-10T10:04:18;100390.69;;;22.67;39.96
76973;BME280;65907;53.640;10.050;2023-05-10T10:06:47;100403.63;;;22.69;39.74
76973;BME280;65907;53.640;10.050;2023-05-10T10:09:23;100404.09;;;22.64;39.78
76973;BME280;65907;53.640;10.050;2023-05-10T10:11:48;100400.78;;;22.62;40.03
76973;BME280;65907;53.640;10.050;2023-05-10T10:14:13;100398.53;;;22.67;39.75
76973;BME280;65907;53.640;10.050;2023-05-10T10:16:39;100404.22;;;22.62;39.54
76973;BME280;65907;53.640;10.050;2023-05-10T10:19:04;100405.72;;;22.65;39.49
76973;BME280;65907;53.640;10.050;2023-05-10T10:21:33;100405.72;;;22.65;39.68
76973;BME280;65907;53.640;10.050;2023-05-10T10:23:58;100407.69;;;22.63;40.12
76973;BME280;65907;53.640;10.050;2023-05-10T10:26:24;100401.16;;;22.67;39.66
76973;BME280;65907;53.640;10.050;2023-05-10T10:28:51;100398.53;;;22.67;39.59
76973;BME280;65907;53.640;10.050;2023-05-10T10:31:32;100403.41;;;22.62;39.62
76973;BME280;65907;53.640;10.050;2023-05-10T10:34:09;100398.97;;;22.62;39.73
76973;BME280;65907;53.640;10.050;2023-05-10T10:36:42;100397.47;;;22.60;39.94
76973;BME280;65907;53.640;10.050;2023-05-10T10:39:09;100400.56;;;22.73;39.59
76973;BME280;65907;53.640;10.050;2023-05-10T10:41:35;100401.31;;;22.66;39.82
76973;BME280;65907;53.640;10.050;2023-05-10T10:52:38;100395.09;;;22.67;39.78
76973;BME280;65907;53.640;10.050;2023-05-10T10:57:35;100401.97;;;22.68;39.52
76973;BME280;65907;53.640;10.050;2023-05-10T11:02:52;100406.53;;;22.66;39.48
76973;BME280;65907;53.640;10.050;2023-05-10T11:07:55;100398.25;;;22.70;39.85
76973;BME280;65907;53.640;10.050;2023-05-10T11:10:21;100399.22;;;22.69;39.69
76973;BME280;65907;53.640;10.050;2023-05-10T11:12:53;100396.66;;;22.59;39.86
76973;BME280;65907;53.640;10.050;2023-05-10T11:15:19;100399.34;;;22.68;39.87
76973;BME280;65907;53.640;10.050;2023-05-10T11:17:44;100401.84;;;22.69;39.65
76973;BME280;65907;53.640;10.050;2023-05-10T11:20:13;100402.94;;;22.67;39.72
76973;BME280;65907;53.640;10.050;2023-05-10T11:22:49;100399.66;;;22.65;39.73
76973;BME280;65907;53.640;10.050;2023-05-10T11:25:17;100403.28;;;22.54;40.16
76973;BME280;65907;53.640;10.050;2023-05-10T11:27:43;100407.81;;;22.61;39.93
76973;BME280;65907;53.640;10.050;2023-05-10T11:30:11;100410.81;;;22.67;39.88
76973;BME280;65907;53.640;10.050;2023-05-10T11:32:37;100403.25;;;22.63;40.12
76973;BME280;65907;53.640;10.050;2023-05-10T11:35:10;100405.25;;;22.70;39.62
76973;BME280;65907;53.640;10.050;2023-05-10T11:37:35;100408.53;;;22.54;40.13
76973;BME280;65907;53.640;10.050;2023-05-10T11:40:00;100410.06;;;22.56;40.03
76973;BME280;65907;53.640;10.050;2023-05-10T11:42:27;100412.56;;;22.48;40.52
76973;BME280;65907;53.640;10.050;2023-05-10T11:44:52;100417.75;;;22.58;40.04
76973;BME280;65907;53.640;10.050;2023-05-10T11:47:18;100408.66;;;22.62;40.11
76973;BME280;65907;53.640;10.050;2023-05-10T11:49:43;100408.84;;;22.51;40.09
76973;BME280;65907;53.640;10.050;2023-05-10T11:52:09;100409.66;;;22.51;40.15
76973;BME280;65907;53.640;10.050;2023-05-10T11:54:36;100413.44;;;22.67;40.19
76973;BME280;65907;53.640;10.050;2023-05-10T11:57:02;100414.78;;;22.71;40.01
76973;BME280;65907;53.640;10.050;2023-05-10T11:59:30;100416.22;;;22.65;40.07
76973;BME280;65907;53.640;10.050;2023-05-10T12:01:55;100407.72;;;22.53;40.40
76973;BME280;65907;53.640;10.050;2023-05-10T12:04:20;100407.81;;;22.61;40.07
76973;BME280;65907;53.640;10.050;2023-05-10T12:06:46;100418.63;;;22.76;39.59
76973;BME280;65907;53.640;10.050;2023-05-10T12:09:11;100412.75;;;22.65;40.09
76973;BME280;65907;53.640;10.050;2023-05-10T12:11:37;100410.97;;;22.65;40.15
76973;BME280;65907;53.640;10.050;2023-05-10T12:14:04;100409.63;;;22.61;40.33
76973;BME280;65907;53.640;10.050;2023-05-10T12:16:29;100418.88;;;22.55;40.24
76973;BME280;65907;53.640;10.050;2023-05-10T12:19:00;100420.72;;;22.35;41.17
76973;BME280;65907;53.640;10.050;2023-05-10T12:21:25;100423.16;;;22.56;40.28
76973;BME280;65907;53.640;10.050;2023-05-10T12:23:52;100422.00;;;21.83;44.53
76973;BME280;65907;53.640;10.050;2023-05-10T12:26:17;100423.81;;;21.73;44.73
76973;BME280;65907;53.640;10.050;2023-05-10T12:28:43;100427.13;;;22.23;42.42
76973;BME280;65907;53.640;10.050;2023-05-10T12:31:14;100421.56;;;22.35;41.57
76973;BME280;65907;53.640;10.050;2023-05-10T12:33:50;100426.69;;;22.65;41.30
76973;BME280;65907;53.640;10.050;2023-05-10T12:36:15;100425.75;;;22.84;40.75
76973;BME280;65907;53.640;10.050;2023-05-10T12:38:42;100430.63;;;22.79;40.78
76973;BME280;65907;53.640;10.050;2023-05-10T12:41:12;100428.28;;;22.76;40.76
76973;BME280;65907;53.640;10.050;2023-05-10T12:43:38;100433.38;;;22.77;40.61
76973;BME280;65907;53.640;10.050;2023-05-10T12:46:13;100437.06;;;22.85;40.62
76973;BME280;65907;53.640;10.050;2023-05-10T12:48:39;100442.63;;;22.72;40.80
76973;BME280;65907;53.640;10.050;2023-05-10T12:51:05;100443.00;;;22.87;40.50
76973;BME280;65907;53.640;10.050;2023-05-10T12:53:33;100442.88;;;22.78;40.92
76973;BME280;65907;53.640;10.050;2023-05-10T12:55:58;100447.53;;;22.57;41.33
76973;BME280;65907;53.640;10.050;2023-05-10T13:03:34;100451.34;;;22.34;41.99
76973;BME280;65907;53.640;10.050;2023-05-10T13:05:59;100453.38;;;22.51;41.50
76973;BME280;65907;53.640;10.050;2023-05-10T13:08:25;100453.38;;;22.78;40.96
76973;BME280;65907;53.640;10.050;2023-05-10T13:10:50;100451.47;;;22.71;40.99
76973;BME280;65907;53.640;10.050;2023-05-10T13:13:19;100454.09;;;22.33;42.07